sensor_id;sensor_type;location;lat;lon;timestamp;pressure;altitude;pressure_sealevel;temperature;humidity
17635;BME280;8936;49.010;12.120;2023-03-25T00:00:02;97273.16;;;12.36;100.00
17635;BME280;8936;49.010;12.120;2023-03-25T00:02:40;97272.44;;;12.30;100.00
17635;BME280;8936;49.010;12.120;2023-03-25T00:05:09;97275.91;;;12.12;100.00
17635;BME280;8936;49.010;12.120;2023-03-25T00:07:36;97283.72;;;12.09;100.00
17635;BME280;8936;49.010;12.120;2023-03-25T00:10:05;97286.47;;;12.04;100.00
17635;BME280;8936;49.010;12.120;2023-03-25T00:12:31;97279.94;;;11.91;100.00
17635;BME280;8936;49.010;12.120;2023-03-25T00:14:58;97275.91;;;11.88;100.00
17635;BME280;8936;49.010;12.120;2023-03-25T00:17:24;97276.88;;;11.98;100.00
17635;BME280;8936;49.010;12.120;2023-03-25T00:19:53;97266.56;;;12.10;100.00
17635;BME280;8936;49.010;12.120;2023-03-25T00:22:19;97283.59;;;12.19;100.00
17635;BME280;8936;49.010;12.120;2023-03-25T00:24:46;97278.06;;;12.10;100.00
17635;BME280;8936;49.010;12.120;2023-03-25T00:27:14;97278.47;;;11.99;100.00
17635;BME280;8936;49.010;12.120;2023-03-25T00:29:41;97278.47;;;11.99;100.00
17635;BME280;8936;49.010;12.120;2023-03-25T00:32:07;97272.50;;;12.07;100.00
17635;BME280;8936;49.010;12.120;2023-03-25T00:34:34;97271.91;;;11.91;100.00
17635;BME280;8936;49.010;12.120;2023-03-25T00:37:06;97267.13;;;11.88;100.00
17635;BME280;8936;49.010;12.120;2023-03-25T00:39:33;97264.81;;;12.00;100.00
17635;BME280;8936;49.010;12.120;2023-03-25T00:41:59;97260.06;;;11.73;100.00
17635;BME280;8936;49.010;12.120;2023-03-25T00:44:28;97264.34;;;11.74;100.00
17635;BME280;8936;49.010;12.120;2023-03-25T00:46:54;97257.34;;;11.78;100.00
17635;BME280;8936;49.010;12.120;2023-03-25T00:49:20;97264.16;;;11.89;100.00
17635;BME280;8936;49.010;12.120;2023-03-25T00:51:49;97257.91;;;11.75;100.00
17635;BME280;8936;49.010;12.120;2023-03-25T00:54:15;97261.25;;;11.86;100.00
17635;BME280;8936;49.010;12.120;2023-03-25T00:56:42;97259.03;;;11.69;100.00
17635;BME280;8936;49.010;12.120;2023-03-25T00:59:09;97260.06;;;11.73;100.00
17635;BME280;8936;49.010;12.120;2023-03-25T01:01:36;97254.75;;;11.68;100.00
17635;BME280;8936;49.010;12.120;2023-03-25T01:04:03;97260.44;;;11.62;100.00
17635;BME280;8936;49.010;12.120;2023-03-25T01:06:36;97249.25;;;11.60;100.00
17635;BME280;8936;49.010;12.120;2023-03-25T01:09:06;97257.38;;;11.73;100.00
17635;BME280;8936;49.010;12.120;2023-03-25T01:11:34;97250.97;;;11.74;100.00
17635;BME280;8936;49.010;12.120;2023-03-25T01:14:03;97248.56;;;11.73;100.00
17635;BME280;8936;49.010;12.120;2023-03-25T01:16:31;97240.91;;;11.61;100.00
17635;BME280;8936;49.010;12.120;2023-03-25T01:18:59;97237.84;;;11.49;100.00
17635;BME280;8936;49.010;12.120;2023-03-25T01:21:25;97243.16;;;11.54;100.00
17635;BME280;8936;49.010;12.120;2023-03-25T01:23:52;97227.97;;;11.50;100.00
17635;BME280;8936;49.010;12.120;2023-03-25T01:26:18;97238.00;;;11.58;100.00
17635;BME280;8936;49.010;12.120;2023-03-25T01:28:44;97229.22;;;11.57;100.00
17635;BME280;8936;49.010;12.120;2023-03-25T01:31:12;97232.47;;;11.54;100.00
17635;BME280;8936;49.010;12.120;2023-03-25T01:33:39;97234.50;;;11.62;100.00
17635;BME280;8936;49.010;12.120;2023-03-25T01:36:08;97236.59;;;11.65;100.00
17635;BME280;8936;49.010;12.120;2023-03-25T01:38:37;97238.41;;;11.46;100.00
17635;BME280;8936;49.010;12.120;2023-03-25T01:41:03;97241.25;;;11.55;100.00
17635;BME280;8936;49.010;12.120;2023-03-25T01:43:30;97241.09;;;11.46;100.00
17635;BME280;8936;49.010;12.120;2023-03-25T01:45:57;97242.75;;;11.66;100.00
17635;BME280;8936;49.010;12.120;2023-03-25T01:48:24;97242.19;;;11.69;100.00
17635;BME280;8936;49.010;12.120;2023-03-25T01:50:53;97242.53;;;11.62;100.00
17635;BME280;8936;49.010;12.120;2023-03-25T01:53:22;97236.22;;;11.53;100.00
17635;BME280;8936;49.010;12.120;2023-03-25T01:55:49;97228.75;;;11.50;100.00
17635;BME280;8936;49.010;12.120;2023-03-25T01:58:17;97234.78;;;11.37;100.00
17635;BME280;8936;49.010;12.120;2023-03-25T02:00:44;97242.63;;;11.52;100.00
17635;BME280;8936;49.010;12.120;2023-03-25T02:03:11;97235.41;;;11.53;100.00
17635;BME280;8936;49.010;12.120;2023-03-25T02:05:41;97234.34;;;11.54;100.00
17635;BME280;8936;49.010;12.120;2023-03-25T02:08:09;97233.41;;;11.39;100.00
17635;BME280;8936;49.010;12.120;2023-03-25T02:10:37;97242.63;;;11.52;100.00
17635;BME280;8936;49.010;12.120;2023-03-25T02:13:04;97228.47;;;11.52;100.00
17635;BME280;8936;49.010;12.120;2023-03-25T02:15:35;97229.56;;;11.51;100.00
17635;BME280;8936;49.010;12.120;2023-03-25T02:18:09;97223.56;;;11.59;100.00
17635;BME280;8936;49.010;12.120;2023-03-25T02:23:33;97226.41;;;11.67;100.00
17635;BME280;8936;49.010;12.120;2023-03-25T02:29:00;97237.03;;;11.49;100.00
17635;BME280;8936;49.010;12.120;2023-03-25T02:36:59;97230.44;;;11.65;100.00
17635;BME280;8936;49.010;12.120;2023-03-25T02:39:33;97231.13;;;11.52;100.00
17635;BME280;8936;49.010;12.120;2023-03-25T02:42:05;97231.34;;;11.55;100.00
17635;BME280;8936;49.010;12.120;2023-03-25T02:44:35;97236.88;;;11.64;100.00
17635;BME280;8936;49.010;12.120;2023-03-25T02:47:03;97242.06;;;11.55;100.00
17635;BME280;8936;49.010;12.120;2023-03-25T02:49:32;97235.81;;;11.41;100.00
17635;BME280;8936;49.010;12.120;2023-03-25T02:52:00;97238.53;;;11.36;100.00
17635;BME280;8936;49.010;12.120;2023-03-25T02:54:30;97235.91;;;11.55;100.00
17635;BME280;8936;49.010;12.120;2023-03-25T02:56:59;97227.16;;;11.49;100.00
17635;BME280;8936;49.010;12.120;2023-03-25T02:59:26;97227.56;;;11.37;100.00
17635;BME280;8936;49.010;12.120;2023-03-25T03:01:54;97218.50;;;11.33;100.00
17635;BME280;8936;49.010;12.120;2023-03-25T03:04:22;97224.44;;;11.54;100.00
17635;BME280;8936;49.010;12.120;2023-03-25T03:06:48;97233.94;;;11.42;100.00
17635;BME280;8936;49.010;12.120;2023-03-25T03:09:18;97219.19;;;11.44;100.00
17635;BME280;8936;49.010;12.120;2023-03-25T03:11:49;97217.03;;;11.46;100.00
17635;BME280;8936;49.010;12.120;2023-03-25T03:14:23;97228.75;;;11.50;100.00
17635;BME280;8936;49.010;12.120;2023-03-25T03:16:57;97217.91;;;11.42;100.00
17635;BME280;8936;49.010;12.120;2023-03-25T03:19:31;97221.00;;;11.49;100.00
17635;BME280;8936;49.010;12.120;2023-03-25T03:22:02;97212.16;;;11.53;100.00
17635;BME280;8936;49.010;12.120;2023-03-25T03:24:38;97220.59;;;11.36;100.00
17635;BME280;8936;49.010;12.120;2023-03-25T03:27:07;97215.66;;;11.49;100.00
17635;BME280;8936;49.010;12.120;2023-03-25T03:29:38;97214.53;;;11.31;100.00
17635;BME280;8936;49.010;12.120;2023-03-25T03:32:09;97219.31;;;11.34;100.00
17635;BME280;8936;49.010;12.120;2023-03-25T03:34:39;97217.84;;;11.23;100.00
17635;BME280;8936;49.010;12.120;2023-03-25T03:37:08;97213.63;;;11.41;100.00
17635;BME280;8936;49.010;12.120;2023-03-25T03:39:37;97211.78;;;11.36;100.00
17635;BME280;8936;49.010;12.120;2023-03-25T03:42:05;97208.69;;;11.29;100.00
17635;BME280;8936;49.010;12.120;2023-03-25T03:44:33;97211.59;;;11.32;100.00
17635;BME280;8936;49.010;12.120;2023-03-25T03:47:04;97203.16;;;11.44;100.00
17635;BME280;8936;49.010;12.120;2023-03-25T03:49:35;97209.13;;;11.36;100.00
17635;BME280;8936;49.010;12.120;2023-03-25T03:52:05;97215.34;;;11.31;100.00
17635;BME280;8936;49.010;12.120;2023-03-25T03:54:34;97230.56;;;11.31;100.00
17635;BME280;8936;49.010;12.120;2023-03-25T03:57:04;97220.00;;;11.45;100.00
17635;BME280;8936;49.010;12.120;2023-03-25T03:59:34;97218.22;;;11.35;100.00
17635;BME280;8936;49.010;12.120;2023-03-25T04:02:05;97225.91;;;11.42;100.00
17635;BME280;8936;49.010;12.120;2023-03-25T04:04:33;97228.22;;;11.48;100.00
17635;BME280;8936;49.010;12.120;2023-03-25T04:07:03;97226.63;;;11.23;100.00
17635;BME280;8936;49.010;12.120;2023-03-25T04:09:35;97226.59;;;11.28;100.00
17635;BME280;8936;49.010;12.120;2023-03-25T04:12:06;97218.34;;;11.25;100.00
17635;BME280;8936;49.010;12.120;2023-03-25T04:14:35;97226.91;;;11.22;100.00
17635;BME280;8936;49.010;12.120;2023-03-25T04:17:04;97238.59;;;11.31;100.00
17635;BME280;8936;49.010;12.120;2023-03-25T04:19:31;97232.75;;;11.29;100.00
17635;BME280;8936;49.010;12.120;2023-03-25T04:21:58;97222.88;;;11.24;100.00
17635;BME280;8936;49.010;12.120;2023-03-25T04:24:25;97229.66;;;11.17;100.00
17635;BME280;8936;49.010;12.120;2023-03-25T04:26:55;97240.53;;;11.25;100.00
17635;BME280;8936;49.010;12.120;2023-03-25T04:29:21;97234.44;;;11.20;100.00
17635;BME280;8936;49.010;12.120;2023-03-25T04:31:48;97242.50;;;11.15;100.00
17635;BME280;8936;49.010;12.120;2023-03-25T04:34:20;97244.59;;;11.18;100.00
17635;BME280;8936;49.010;12.120;2023-03-25T04:36:46;97240.22;;;11.27;100.00
17635;BME280;8936;49.010;12.120;2023-03-25T04:39:14;97239.09;;;11.33;100.00
17635;BME280;8936;49.010;12.120;2023-03-25T04:41:41;97241.75;;;11.33;100.00
17635;BME280;8936;49.010;12.120;2023-03-25T04:44:08;97251.38;;;11.34;100.00
17635;BME280;8936;49.010;12.120;2023-03-25T04:46:34;97236.38;;;11.38;100.00
17635;BME280;8936;49.010;12.120;2023-03-25T04:49:01;97240.34;;;11.41;100.00
17635;BME280;8936;49.010;12.120;2023-03-25T04:51:31;97235.41;;;11.29;100.00
17635;BME280;8936;49.010;12.120;2023-03-25T04:53:58;97238.97;;;11.19;100.00
17635;BME280;8936;49.010;12.120;2023-03-25T04:56:24;97235.69;;;10.99;100.00
17635;BME280;8936;49.010;12.120;2023-03-25T04:58:51;97238.59;;;11.02;100.00
17635;BME280;8936;49.010;12.120;2023-03-25T05:01:19;97245.28;;;11.05;100.00
17635;BME280;8936;49.010;12.120;2023-03-25T05:03:48;97238.75;;;11.16;100.00
17635;BME280;8936;49.010;12.120;2023-03-25T05:06:15;97241.66;;;11.19;100.00
17635;BME280;8936;49.010;12.120;2023-03-25T05:08:42;97233.31;;;11.26;100.00
17635;BME280;8936;49.010;12.120;2023-03-25T05:11:09;97233.75;;;11.33;100.00
17635;BME280;8936;49.010;12.120;2023-03-25T05:13:35;97233.81;;;10.99;100.00
17635;BME280;8936;49.010;12.120;2023-03-25T05:16:02;97234.34;;;11.01;100.00
17635;BME280;8936;49.010;12.120;2023-03-25T05:18:28;97229.28;;;11.00;100.00
17635;BME280;8936;49.010;12.120;2023-03-25T05:20:55;97227.13;;;10.73;100.00
17635;BME280;8936;49.010;12.120;2023-03-25T05:23:21;97232.00;;;10.95;100.00
17635;BME280;8936;49.010;12.120;2023-03-25T05:25:50;97235.19;;;10.97;100.00
17635;BME280;8936;49.010;12.120;2023-03-25T05:28:16;97240.97;;;10.75;100.00
17635;BME280;8936;49.010;12.120;2023-03-25T05:30:43;97241.66;;;10.91;100.00
17635;BME280;8936;49.010;12.120;2023-03-25T05:33:11;97246.25;;;10.85;100.00
17635;BME280;8936;49.010;12.120;2023-03-25T05:35:39;97249.06;;;10.99;100.00
17635;BME280;8936;49.010;12.120;2023-03-25T05:38:06;97241.28;;;10.73;100.00
17635;BME280;8936;49.010;12.120;2023-03-25T05:40:33;97243.59;;;10.80;100.00
17635;BME280;8936;49.010;12.120;2023-03-25T05:43:01;97243.34;;;10.81;100.00
17635;BME280;8936;49.010;12.120;2023-03-25T05:45:28;97252.06;;;10.92;100.00
17635;BME280;8936;49.010;12.120;2023-03-25T05:47:54;97252.34;;;10.91;100.00
17635;BME280;8936;49.010;12.120;2023-03-25T05:50:23;97257.75;;;10.80;100.00
17635;BME280;8936;49.010;12.120;2023-03-25T05:52:49;97256.28;;;10.98;100.00
17635;BME280;8936;49.010;12.120;2023-03-25T05:55:16;97258.75;;;10.90;100.00
17635;BME280;8936;49.010;12.120;2023-03-25T05:57:43;97265.78;;;10.80;100.00
17635;BME280;8936;49.010;12.120;2023-03-25T06:00:12;97263.53;;;10.93;100.00
17635;BME280;8936;49.010;12.120;2023-03-25T06:02:39;97246.84;;;10.77;100.00
17635;BME280;8936;49.010;12.120;2023-03-25T06:05:07;97259.41;;;10.76;100.00
17635;BME280;8936;49.010;12.120;2023-03-25T06:07:34;97264.63;;;10.92;100.00
17635;BME280;8936;49.010;12.120;2023-03-25T06:10:01;97273.72;;;10.91;100.00
17635;BME280;8936;49.010;12.120;2023-03-25T06:12:28;97282.22;;;10.93;100.00
17635;BME280;8936;49.010;12.120;2023-03-25T06:14:57;97271.44;;;10.74;100.00
17635;BME280;8936;49.010;12.120;2023-03-25T06:17:25;97275.78;;;10.65;100.00
17635;BME280;8936;49.010;12.120;2023-03-25T06:19:51;97290.84;;;10.84;100.00
17635;BME280;8936;49.010;12.120;2023-03-25T06:22:18;97283.00;;;10.98;100.00
17635;BME280;8936;49.010;12.120;2023-03-25T06:24:46;97283.41;;;10.81;100.00
17635;BME280;8936;49.010;12.120;2023-03-25T06:27:13;97289.34;;;10.73;100.00
17635;BME280;8936;49.010;12.120;2023-03-25T06:29:39;97298.81;;;10.90;100.00
17635;BME280;8936;49.010;12.120;2023-03-25T06:32:06;97293.97;;;10.63;100.00
17635;BME280;8936;49.010;12.120;2023-03-25T06:34:34;97318.13;;;10.81;100.00
17635;BME280;8936;49.010;12.120;2023-03-25T06:37:00;97309.84;;;10.83;100.00
17635;BME280;8936;49.010;12.120;2023-03-25T06:39:27;97301.66;;;10.69;100.00
17635;BME280;8936;49.010;12.120;2023-03-25T06:41:55;97308.47;;;10.86;100.00
17635;BME280;8936;49.010;12.120;2023-03-25T06:44:21;97310.88;;;10.87;100.00
17635;BME280;8936;49.010;12.120;2023-03-25T06:46:47;97305.44;;;10.63;100.00
17635;BME280;8936;49.010;12.120;2023-03-25T06:49:14;97301.69;;;10.64;100.00
17635;BME280;8936;49.010;12.120;2023-03-25T06:51:42;97304.84;;;10.71;100.00
17635;BME280;8936;49.010;12.120;2023-03-25T06:54:08;97319.53;;;10.69;100.00
17635;BME280;8936;49.010;12.120;2023-03-25T06:56:35;97316.28;;;10.77;100.00
17635;BME280;8936;49.010;12.120;2023-03-25T06:59:01;97325.53;;;10.90;100.00
17635;BME280;8936;49.010;12.120;2023-03-25T07:01:27;97330.91;;;10.84;100.00
17635;BME280;8936;49.010;12.120;2023-03-25T07:03:54;97330.88;;;10.90;100.00
17635;BME280;8936;49.010;12.120;2023-03-25T07:06:21;97335.34;;;10.99;100.00
17635;BME280;8936;49.010;12.120;2023-03-25T07:08:49;97338.44;;;11.11;100.00
17635;BME280;8936;49.010;12.120;2023-03-25T07:11:16;97332.91;;;11.08;100.00
17635;BME280;8936;49.010;12.120;2023-03-25T07:13:44;97341.41;;;11.10;100.00
17635;BME280;8936;49.010;12.120;2023-03-25T07:16:11;97346.16;;;11.18;100.00
17635;BME280;8936;49.010;12.120;2023-03-25T07:18:37;97352.47;;;11.27;100.00
17635;BME280;8936;49.010;12.120;2023-03-25T07:21:04;97363.16;;;11.32;100.00
17635;BME280;8936;49.010;12.120;2023-03-25T07:23:30;97357.00;;;11.31;100.00
17635;BME280;8936;49.010;12.120;2023-03-25T07:25:58;97364.97;;;11.03;100.00
17635;BME280;8936;49.010;12.120;2023-03-25T07:28:24;97356.09;;;11.12;100.00
17635;BME280;8936;49.010;12.120;2023-03-25T07:30:51;97350.66;;;11.22;100.00
17635;BME280;8936;49.010;12.120;2023-03-25T07:33:17;97355.72;;;10.90;100.00
17635;BME280;8936;49.010;12.120;2023-03-25T07:35:43;97353.72;;;11.11;100.00
17635;BME280;8936;49.010;12.120;2023-03-25T07:38:10;97346.44;;;10.82;100.00
17635;BME280;8936;49.010;12.120;2023-03-25T07:40:36;97347.63;;;11.00;100.00
17635;BME280;8936;49.010;12.120;2023-03-25T07:43:04;97354.97;;;11.18;100.00
17635;BME280;8936;49.010;12.120;2023-03-25T07:45:30;97369.19;;;11.14;100.00
17635;BME280;8936;49.010;12.120;2023-03-25T07:47:58;97367.97;;;10.96;100.00
17635;BME280;8936;49.010;12.120;2023-03-25T07:50:25;97369.97;;;11.14;100.00
17635;BME280;8936;49.010;12.120;2023-03-25T07:52:51;97355.97;;;10.94;100.00
17635;BME280;8936;49.010;12.120;2023-03-25T07:55:17;97351.06;;;11.06;100.00
17635;BME280;8936;49.010;12.120;2023-03-25T07:57:44;97356.66;;;11.09;100.00
17635;BME280;8936;49.010;12.120;2023-03-25T08:00:12;97360.44;;;11.03;100.00
17635;BME280;8936;49.010;12.120;2023-03-25T08:02:39;97352.19;;;11.00;100.00
17635;BME280;8936;49.010;12.120;2023-03-25T08:05:06;97359.06;;;11.06;100.00
17635;BME280;8936;49.010;12.120;2023-03-25T08:07:32;97353.22;;;11.04;100.00
17635;BME280;8936;49.010;12.120;2023-03-25T08:09:59;97345.22;;;10.99;100.00
17635;BME280;8936;49.010;12.120;2023-03-25T08:12:25;97347.13;;;10.98;100.00
17635;BME280;8936;49.010;12.120;2023-03-25T08:14:51;97350.25;;;11.05;100.00
17635;BME280;8936;49.010;12.120;2023-03-25T08:17:19;97336.16;;;11.00;100.00
17635;BME280;8936;49.010;12.120;2023-03-25T08:19:45;97343.03;;;11.11;100.00
17635;BME280;8936;49.010;12.120;2023-03-25T08:22:12;97347.56;;;11.10;100.00
17635;BME280;8936;49.010;12.120;2023-03-25T08:24:38;97344.56;;;11.17;100.00
17635;BME280;8936;49.010;12.120;2023-03-25T08:27:04;97339.81;;;11.09;100.00
17635;BME280;8936;49.010;12.120;2023-03-25T08:29:31;97352.53;;;11.22;100.00
17635;BME280;8936;49.010;12.120;2023-03-25T08:31:58;97346.50;;;11.40;100.00
17635;BME280;8936;49.010;12.120;2023-03-25T08:34:26;97344.03;;;11.15;100.00
17635;BME280;8936;49.010;12.120;2023-03-25T08:36:53;97346.19;;;11.13;100.00
17635;BME280;8936;49.010;12.120;2023-03-25T08:39:19;97349.38;;;11.15;100.00
17635;BME280;8936;49.010;12.120;2023-03-25T08:41:46;97354.97;;;11.18;100.00
17635;BME280;8936;49.010;12.120;2023-03-25T08:44:12;97329.13;;;11.09;100.00
17635;BME280;8936;49.010;12.120;2023-03-25T08:46:38;97351.50;;;11.18;100.00
17635;BME280;8936;49.010;12.120;2023-03-25T08:49:05;97352.03;;;11.20;100.00
17635;BME280;8936;49.010;12.120;2023-03-25T08:51:32;97351.22;;;11.19;100.00
17635;BME280;8936;49.010;12.120;2023-03-25T08:53:59;97343.56;;;11.42;100.00
17635;BME280;8936;49.010;12.120;2023-03-25T08:56:26;97341.22;;;11.30;100.00
17635;BME280;8936;49.010;12.120;2023-03-25T08:58:52;97342.28;;;11.34;100.00
17635;BME280;8936;49.010;12.120;2023-03-25T09:01:19;97351.75;;;11.50;100.00
17635;BME280;8936;49.010;12.120;2023-03-25T09:03:46;97342.50;;;11.37;100.00
17635;BME280;8936;49.010;12.120;2023-03-25T09:06:12;97335.88;;;11.59;100.00
17635;BME280;8936;49.010;12.120;2023-03-25T09:08:40;97338.22;;;11.65;100.00
17635;BME280;8936;49.010;12.120;2023-03-25T09:11:06;97331.59;;;11.58;100.00
17635;BME280;8936;49.010;12.120;2023-03-25T09:13:32;97323.41;;;11.49;100.00
17635;BME280;8936;49.010;12.120;2023-03-25T09:15:59;97324.44;;;11.53;100.00
17635;BME280;8936;49.010;12.120;2023-03-25T09:18:25;97326.06;;;11.54;100.00
17635;BME280;8936;49.010;12.120;2023-03-25T09:20:52;97336.38;;;11.61;100.00
17635;BME280;8936;49.010;12.120;2023-03-25T09:23:23;97328.72;;;11.54;100.00
17635;BME280;8936;49.010;12.120;2023-03-25T09:25:50;97336.38;;;11.61;100.00
17635;BME280;8936;49.010;12.120;2023-03-25T09:28:17;97336.34;;;11.66;100.00
17635;BME280;8936;49.010;12.120;2023-03-25T09:30:43;97340.97;;;11.60;100.00
17635;BME280;8936;49.010;12.120;2023-03-25T09:33:09;97343.44;;;11.80;100.00
17635;BME280;8936;49.010;12.120;2023-03-25T09:35:36;97345.22;;;11.90;100.00
17635;BME280;8936;49.010;12.120;2023-03-25T09:38:02;97334.44;;;11.95;100.00
17635;BME280;8936;49.010;12.120;2023-03-25T09:40:29;97327.69;;;12.03;100.00
17635;BME280;8936;49.010;12.120;2023-03-25T09:43:02;97327.56;;;12.13;100.00
17635;BME280;8936;49.010;12.120;2023-03-25T09:45:34;97325.25;;;12.25;100.00
17635;BME280;8936;49.010;12.120;2023-03-25T09:48:02;97322.59;;;12.43;100.00
17635;BME280;8936;49.010;12.120;2023-03-25T09:50:30;97319.50;;;12.55;100.00
17635;BME280;8936;49.010;12.120;2023-03-25T09:52:59;97322.38;;;12.40;100.00
17635;BME280;8936;49.010;12.120;2023-03-25T09:55:27;97311.09;;;12.43;100.00
17635;BME280;8936;49.010;12.120;2023-03-25T09:57:56;97313.47;;;12.44;100.00
17635;BME280;8936;49.010;12.120;2023-03-25T10:00:27;97306.31;;;12.40;100.00
17635;BME280;8936;49.010;12.120;2023-03-25T10:02:56;97311.09;;;12.43;100.00
17635;BME280;8936;49.010;12.120;2023-03-25T10:05:32;97307.19;;;12.54;100.00
17635;BME280;8936;49.010;12.120;2023-03-25T10:08:03;97289.88;;;12.47;100.00
17635;BME280;8936;49.010;12.120;2023-03-25T10:10:34;97308.19;;;12.58;100.00
17635;BME280;8936;49.010;12.120;2023-03-25T10:13:04;97292.13;;;12.58;100.00
17635;BME280;8936;49.010;12.120;2023-03-25T10:15:35;97284.50;;;12.84;100.00
17635;BME280;8936;49.010;12.120;2023-03-25T10:18:14;97290.28;;;12.72;100.00
17635;BME280;8936;49.010;12.120;2023-03-25T10:20:44;97284.34;;;12.75;100.00
17635;BME280;8936;49.010;12.120;2023-03-25T10:23:13;97297.03;;;12.70;100.00
17635;BME280;8936;49.010;12.120;2023-03-25T10:25:43;97286.03;;;12.71;100.00
17635;BME280;8936;49.010;12.120;2023-03-25T10:28:11;97281.88;;;12.79;100.00
17635;BME280;8936;49.010;12.120;2023-03-25T10:30:43;97282.00;;;12.87;100.00
17635;BME280;8936;49.010;12.120;2023-03-25T10:33:14;97280.13;;;12.88;100.00
17635;BME280;8936;49.010;12.120;2023-03-25T10:35:43;97272.41;;;12.86;100.00
17635;BME280;8936;49.010;12.120;2023-03-25T10:38:12;97283.50;;;12.80;100.00
17635;BME280;8936;49.010;12.120;2023-03-25T10:40:43;97278.41;;;12.78;100.00
17635;BME280;8936;49.010;12.120;2023-03-25T10:43:14;97275.50;;;12.93;100.00
17635;BME280;8936;49.010;12.120;2023-03-25T10:45:44;97282.38;;;12.99;100.00
17635;BME280;8936;49.010;12.120;2023-03-25T10:48:12;97291.66;;;12.88;100.00
17635;BME280;8936;49.010;12.120;2023-03-25T10:50:41;97293.03;;;12.86;100.00
17635;BME280;8936;49.010;12.120;2023-03-25T10:53:10;97287.22;;;12.97;100.00
17635;BME280;8936;49.010;12.120;2023-03-25T10:55:39;97264.69;;;12.98;100.00
17635;BME280;8936;49.010;12.120;2023-03-25T10:58:06;97276.53;;;13.30;100.00
17635;BME280;8936;49.010;12.120;2023-03-25T11:00:33;97261.81;;;13.27;100.00
17635;BME280;8936;49.010;12.120;2023-03-25T11:03:00;97275.53;;;13.39;100.00
17635;BME280;8936;49.010;12.120;2023-03-25T11:05:29;97282.19;;;13.56;100.00
17635;BME280;8936;49.010;12.120;2023-03-25T11:07:56;97269.78;;;13.60;100.00
17635;BME280;8936;49.010;12.120;2023-03-25T11:10:25;97265.31;;;13.55;100.00
17635;BME280;8936;49.010;12.120;2023-03-25T11:12:53;97269.69;;;13.51;100.00
17635;BME280;8936;49.010;12.120;2023-03-25T11:15:23;97253.78;;;13.41;100.00
17635;BME280;8936;49.010;12.120;2023-03-25T11:17:57;97252.22;;;13.40;100.00
17635;BME280;8936;49.010;12.120;2023-03-25T11:20:27;97241.56;;;13.62;100.00
17635;BME280;8936;49.010;12.120;2023-03-25T11:22:56;97234.22;;;13.54;100.00
17635;BME280;8936;49.010;12.120;2023-03-25T11:25:28;97233.81;;;13.74;100.00
17635;BME280;8936;49.010;12.120;2023-03-25T11:27:57;97212.16;;;13.57;100.00
17635;BME280;8936;49.010;12.120;2023-03-25T11:30:24;97228.16;;;13.62;99.78
17635;BME280;8936;49.010;12.120;2023-03-25T11:32:58;97230.84;;;13.62;99.35
17635;BME280;8936;49.010;12.120;2023-03-25T11:35:27;97232.72;;;13.48;100.00
17635;BME280;8936;49.010;12.120;2023-03-25T11:37:54;97245.13;;;13.44;100.00
17635;BME280;8936;49.010;12.120;2023-03-25T11:40:22;97235.78;;;13.28;100.00
17635;BME280;8936;49.010;12.120;2023-03-25T11:42:50;97250.47;;;13.17;100.00
17635;BME280;8936;49.010;12.120;2023-03-25T11:45:18;97250.84;;;13.10;100.00
17635;BME280;8936;49.010;12.120;2023-03-25T11:47:45;97255.94;;;13.12;100.00
17635;BME280;8936;49.010;12.120;2023-03-25T11:50:17;97244.25;;;13.03;100.00
17635;BME280;8936;49.010;12.120;2023-03-25T11:52:46;97257.25;;;12.95;100.00
17635;BME280;8936;49.010;12.120;2023-03-25T11:55:16;97250.06;;;12.91;100.00
17635;BME280;8936;49.010;12.120;2023-03-25T11:57:44;97246.81;;;12.94;100.00
17635;BME280;8936;49.010;12.120;2023-03-25T12:00:18;97259.03;;;13.00;100.00
17635;BME280;8936;49.010;12.120;2023-03-25T12:02:46;97253.53;;;12.91;100.00
17635;BME280;8936;49.010;12.120;2023-03-25T12:05:13;97261.16;;;12.84;100.00
17635;BME280;8936;49.010;12.120;2023-03-25T12:07:40;97259.72;;;12.92;100.00
17635;BME280;8936;49.010;12.120;2023-03-25T12:10:15;97249.63;;;13.03;100.00
17635;BME280;8936;49.010;12.120;2023-03-25T12:12:42;97232.75;;;13.02;100.00
17635;BME280;8936;49.010;12.120;2023-03-25T12:15:14;97227.59;;;13.06;100.00
17635;BME280;8936;49.010;12.120;2023-03-25T12:17:47;97224.34;;;13.09;100.00
17635;BME280;8936;49.010;12.120;2023-03-25T12:20:19;97221.72;;;13.04;100.00
17635;BME280;8936;49.010;12.120;2023-03-25T12:22:52;97214.69;;;13.08;100.00
17635;BME280;8936;49.010;12.120;2023-03-25T12:25:25;97217.88;;;13.10;100.00
17635;BME280;8936;49.010;12.120;2023-03-25T12:28:00;97204.47;;;13.10;100.00
17635;BME280;8936;49.010;12.120;2023-03-25T12:30:31;97205.59;;;13.22;100.00
17635;BME280;8936;49.010;12.120;2023-03-25T12:33:01;97208.16;;;13.14;100.00
17635;BME280;8936;49.010;12.120;2023-03-25T12:35:33;97198.44;;;13.18;100.00
17635;BME280;8936;49.010;12.120;2023-03-25T12:38:06;97196.44;;;13.10;100.00
17635;BME280;8936;49.010;12.120;2023-03-25T12:40:48;97190.06;;;13.06;100.00
17635;BME280;8936;49.010;12.120;2023-03-25T12:43:20;97174.56;;;13.03;100.00
17635;BME280;8936;49.010;12.120;2023-03-25T12:45:56;97191.00;;;13.15;100.00
17635;BME280;8936;49.010;12.120;2023-03-25T12:48:40;97178.81;;;13.04;100.00
17635;BME280;8936;49.010;12.120;2023-03-25T12:51:13;97183.03;;;13.10;100.00
17635;BME280;8936;49.010;12.120;2023-03-25T12:53:44;97194.56;;;13.10;100.00
17635;BME280;8936;49.010;12.120;2023-03-25T12:56:20;97172.63;;;13.08;100.00
17635;BME280;8936;49.010;12.120;2023-03-25T12:58:52;97176.16;;;13.04;100.00
17635;BME280;8936;49.010;12.120;2023-03-25T13:01:28;97182.63;;;13.03;100.00
17635;BME280;8936;49.010;12.120;2023-03-25T13:06:46;97176.53;;;12.97;100.00
17635;BME280;8936;49.010;12.120;2023-03-25T13:09:19;97188.06;;;12.97;100.00